Fassberg, Germany

8:15 PM CEST on July 30, 2016 (GMT +0200)
Königsberger Straße | | Change Station

Elev 308 ft 52.85 °N, 10.30 °E | Updated 3 minutes ago

Mostly Cloudy
Mostly Cloudy
68.7 °F
Feels Like 68.7 °F
N
0.6
Wind Variable Wind from SE
Gusts 1.9 mph

Today
High -- | Low -- °F
--% Chance of Precip.
Yesterday
High -- | Low -- °F
Precip. -- in
Pressure 29.89 in
Visibility 6.2 miles
Clouds Few 3700 ft
Mostly Cloudy 6500 ft
Mostly Cloudy 11000 ft
Dew Point 60 °F
Humidity 72%
Rainfall 0.00 in
Snow Depth Not available.
5:34 AM 9:15 PM
Waning Crescent, 12% visible
METAR EDDV 301750Z 31005KT 9999 FEW037 BKN065 BKN110 20/16 Q1012 NOSIG
Pressure 29.89 in
Visibility 6.2 miles
Clouds Few 3700 ft
Mostly Cloudy 6500 ft
Mostly Cloudy 11000 ft
Dew Point 60 °F
Humidity 72%
Rainfall 0.00 in
Snow Depth Not available.
5:34 AM 9:15 PM
Waning Crescent, 12% visible
METAR EDDV 301750Z 31005KT 9999 FEW037 BKN065 BKN110 20/16 Q1012 NOSIG

10-Day Weather Forecast

×

Almanac

Astronomy

Jul. 30, 2016 Rise Set
Actual Time
Civil Twilight
Nautical Twilight
Astronomical Twilight
Moon
Length of Visible Light
Length of Day
Tomorrow will be .
, % of the Moon is Illuminated

Today's Extremes

Country Highs Country Lows

Community

WunderPhotos

Upload Photos

1,928,607 photos uploaded!

WunderBlog® & News

Nearby

Air Quality

  Air Quality AQ Index Pollutant
Not available.

Snow Depth

Station Depth Elevation

Earthquake Activity

City Distance Mag. Time & Date
Minimum magnitude displayed is 2.5.

Coastal Water Temperatures

Place Temperature

Stations

Nearby Weather Stations

Station Location Temp. Windchill Dew Point Humidity Wind Precip. Elev Updated Type